VVHU700 KNDZ-KNDZ
Flight info
| Callsign | VVHU700 |
|---|---|
| Flight time | 0h 31m |
| Altitude | 9000 |
| Route | NORTH MOA KNDZ PATTERN |
| Aircraft | H60/L-VD/C |
Departure
| Time | 2026-04-12 18:24 |
|---|---|
| Airport | Whiting Field Naval Air Station South Airport (KNDZ) |
Arrival
| Time | 2026-04-12 18:55 |
|---|---|
| Airport | Whiting Field Naval Air Station South Airport (KNDZ) |
| Time | Latitude | Longitude | Altitude | Speed | Heading |
|---|---|---|---|---|---|
| 2026-04-12 18:24 | 30.73273 | -87.00272 | 949 ft | 67 kts | 17° |
| 2026-04-12 18:24 | 30.73686 | -87.00002 | 949 ft | 69 kts | 17° |
| 2026-04-12 18:24 | 30.74094 | -86.99713 | 915 ft | 69 kts | 17° |
| 2026-04-12 18:24 | 30.74498 | -86.99408 | 879 ft | 70 kts | 17° |
| 2026-04-12 18:25 | 30.74901 | -86.99091 | 806 ft | 71 kts | 18° |
| 2026-04-12 18:25 | 30.75379 | -86.98832 | 1120 ft | 81 kts | 358° |
| 2026-04-12 18:25 | 30.75957 | -86.98788 | 1085 ft | 98 kts | 339° |
| 2026-04-12 18:25 | 30.76550 | -86.99096 | 1108 ft | 87 kts | 321° |
| 2026-04-12 18:26 | 30.76985 | -86.99503 | 1106 ft | 77 kts | 321° |
| 2026-04-12 18:26 | 30.77401 | -86.99881 | 1110 ft | 76 kts | 321° |
| 2026-04-12 18:26 | 30.77823 | -87.00252 | 1115 ft | 76 kts | 321° |
| 2026-04-12 18:26 | 30.78248 | -87.00619 | 1111 ft | 77 kts | 321° |
| 2026-04-12 18:27 | 30.78676 | -87.00983 | 1116 ft | 76 kts | 321° |
| 2026-04-12 18:27 | 30.79105 | -87.01344 | 1113 ft | 77 kts | 321° |
| 2026-04-12 18:27 | 30.79538 | -87.01701 | 1114 ft | 77 kts | 321° |
| 2026-04-12 18:27 | 30.79971 | -87.02058 | 1113 ft | 76 kts | 321° |
| 2026-04-12 18:28 | 30.80404 | -87.02414 | 1114 ft | 77 kts | 321° |
| 2026-04-12 18:28 | 30.80837 | -87.02771 | 1115 ft | 76 kts | 321° |
| 2026-04-12 18:28 | 30.81323 | -87.02904 | 1111 ft | 76 kts | 15° |
| 2026-04-12 18:28 | 30.81834 | -87.02693 | 1114 ft | 79 kts | 18° |
| 2026-04-12 18:29 | 30.82344 | -87.02483 | 1116 ft | 79 kts | 18° |
| 2026-04-12 18:29 | 30.82857 | -87.02275 | 1117 ft | 78 kts | 18° |
| 2026-04-12 18:29 | 30.83368 | -87.02067 | 1118 ft | 78 kts | 18° |
| 2026-04-12 18:29 | 30.83878 | -87.01857 | 1115 ft | 78 kts | 18° |
| 2026-04-12 18:30 | 30.84390 | -87.01645 | 1116 ft | 78 kts | 18° |
| 2026-04-12 18:30 | 30.84900 | -87.01432 | 1115 ft | 78 kts | 18° |
| 2026-04-12 18:30 | 30.85409 | -87.01217 | 1115 ft | 78 kts | 18° |
| 2026-04-12 18:30 | 30.85919 | -87.01002 | 1110 ft | 77 kts | 18° |
| 2026-04-12 18:31 | 30.86435 | -87.00826 | 1115 ft | 77 kts | 17° |
| 2026-04-12 18:31 | 30.86952 | -87.00633 | 1116 ft | 78 kts | 17° |
| 2026-04-12 18:31 | 30.87468 | -87.00437 | 1116 ft | 77 kts | 17° |
| 2026-04-12 18:31 | 30.87983 | -87.00240 | 1117 ft | 78 kts | 17° |
| 2026-04-12 18:32 | 30.88498 | -87.00041 | 1116 ft | 77 kts | 17° |
| 2026-04-12 18:32 | 30.89010 | -86.99840 | 1117 ft | 77 kts | 17° |
| 2026-04-12 18:32 | 30.89524 | -86.99636 | 1116 ft | 77 kts | 17° |
| 2026-04-12 18:32 | 30.90036 | -86.99432 | 1110 ft | 77 kts | 17° |
| 2026-04-12 18:33 | 30.90548 | -86.99228 | 1115 ft | 78 kts | 17° |
| 2026-04-12 18:33 | 30.91062 | -86.99025 | 1115 ft | 78 kts | 17° |
| 2026-04-12 18:33 | 30.91576 | -86.98823 | 1113 ft | 78 kts | 17° |
| 2026-04-12 18:33 | 30.92102 | -86.98721 | 1167 ft | 80 kts | 10° |
| 2026-04-12 18:34 | 30.92635 | -86.98628 | 2019 ft | 76 kts | 10° |
| 2026-04-12 18:34 | 30.93191 | -86.98512 | 1827 ft | 94 kts | 10° |
| 2026-04-12 18:34 | 30.93879 | -86.98365 | 1490 ft | 98 kts | 10° |
| 2026-04-12 18:34 | 30.94423 | -86.98248 | 1115 ft | 57 kts | 10° |
| 2026-04-12 18:35 | 30.94844 | -86.98126 | 651 ft | 82 kts | 10° |
| 2026-04-12 18:35 | 30.95356 | -86.97997 | 522 ft | 79 kts | 10° |
| 2026-04-12 18:35 | 30.95873 | -86.97865 | 553 ft | 75 kts | 10° |
| 2026-04-12 18:35 | 30.96382 | -86.97730 | 544 ft | 76 kts | 10° |
| 2026-04-12 18:36 | 30.96725 | -86.97680 | 541 ft | 70 kts | 5° |
| 2026-04-12 18:36 | 30.96871 | -86.97750 | 531 ft | 72 kts | 356° |
| 2026-04-12 18:37 | 30.95657 | -86.98740 | 547 ft | 85 kts | 186° |
| 2026-04-12 18:37 | 30.95100 | -86.98766 | 546 ft | 73 kts | 189° |
| 2026-04-12 18:37 | 30.94936 | -86.99251 | 533 ft | 87 kts | 263° |
| 2026-04-12 18:37 | 30.95412 | -86.99757 | 533 ft | 103 kts | 327° |
| 2026-04-12 18:38 | 30.96118 | -86.99701 | 553 ft | 99 kts | 9° |
| 2026-04-12 18:38 | 30.96739 | -86.99575 | 550 ft | 84 kts | 7° |
| 2026-04-12 18:38 | 30.97235 | -86.99739 | 542 ft | 73 kts | 333° |
| 2026-04-12 18:38 | 30.97372 | -87.00290 | 540 ft | 76 kts | 284° |
| 2026-04-12 18:39 | 30.97055 | -87.00776 | 542 ft | 79 kts | 226° |
| 2026-04-12 18:39 | 30.96519 | -87.00831 | 550 ft | 77 kts | 189° |
| 2026-04-12 18:39 | 30.95990 | -87.00853 | 545 ft | 76 kts | 189° |
| 2026-04-12 18:39 | 30.95476 | -87.00819 | 533 ft | 78 kts | 171° |
| 2026-04-12 18:40 | 30.95009 | -87.00479 | 538 ft | 79 kts | 160° |
| 2026-04-12 18:40 | 30.94520 | -87.00225 | 602 ft | 75 kts | 158° |
| 2026-04-12 18:40 | 30.93995 | -86.99970 | 578 ft | 90 kts | 158° |
| 2026-04-12 18:40 | 30.93403 | -86.99668 | 509 ft | 92 kts | 158° |
| 2026-04-12 18:41 | 30.92804 | -86.99361 | 452 ft | 95 kts | 158° |
| 2026-04-12 18:41 | 30.92206 | -86.99053 | 456 ft | 94 kts | 158° |
| 2026-04-12 18:41 | 30.91607 | -86.98745 | 457 ft | 95 kts | 158° |
| 2026-04-12 18:41 | 30.91008 | -86.98437 | 457 ft | 95 kts | 158° |
| 2026-04-12 18:42 | 30.90409 | -86.98128 | 457 ft | 94 kts | 158° |
| 2026-04-12 18:42 | 30.89811 | -86.97820 | 458 ft | 93 kts | 158° |
| 2026-04-12 18:42 | 30.89197 | -86.97563 | 464 ft | 92 kts | 182° |
| 2026-04-12 18:43 | 30.87105 | -86.98680 | 462 ft | 105 kts | 205° |
| 2026-04-12 18:43 | 30.86496 | -86.98984 | 467 ft | 91 kts | 205° |
| 2026-04-12 18:43 | 30.85843 | -86.99084 | 454 ft | 103 kts | 172° |
| 2026-04-12 18:44 | 30.85210 | -86.98901 | 464 ft | 93 kts | 171° |
| 2026-04-12 18:44 | 30.84570 | -86.98751 | 462 ft | 93 kts | 171° |
| 2026-04-12 18:44 | 30.83930 | -86.98613 | 465 ft | 92 kts | 180° |
| 2026-04-12 18:44 | 30.83336 | -86.98848 | 456 ft | 95 kts | 205° |
| 2026-04-12 18:45 | 30.82742 | -86.99141 | 459 ft | 92 kts | 205° |
| 2026-04-12 18:45 | 30.82359 | -86.99643 | 462 ft | 95 kts | 234° |
| 2026-04-12 18:45 | 30.81966 | -87.00249 | 459 ft | 91 kts | 232° |
| 2026-04-12 18:45 | 30.81557 | -87.00826 | 458 ft | 91 kts | 232° |
| 2026-04-12 18:46 | 30.81149 | -87.01400 | 458 ft | 92 kts | 232° |
| 2026-04-12 18:46 | 30.80739 | -87.01975 | 458 ft | 92 kts | 232° |
| 2026-04-12 18:46 | 30.80330 | -87.02550 | 458 ft | 93 kts | 232° |
| 2026-04-12 18:46 | 30.79782 | -87.02856 | 454 ft | 92 kts | 176° |
| 2026-04-12 18:47 | 30.79156 | -87.02644 | 458 ft | 95 kts | 168° |
| 2026-04-12 18:47 | 30.78522 | -87.02464 | 459 ft | 91 kts | 165° |
| 2026-04-12 18:47 | 30.77975 | -87.02179 | 458 ft | 96 kts | 148° |
| 2026-04-12 18:47 | 30.77442 | -87.01726 | 458 ft | 94 kts | 146° |
| 2026-04-12 18:48 | 30.76909 | -87.01275 | 458 ft | 94 kts | 146° |
| 2026-04-12 18:48 | 30.76378 | -87.00825 | 458 ft | 94 kts | 146° |
| 2026-04-12 18:48 | 30.75847 | -87.00378 | 458 ft | 94 kts | 146° |
| 2026-04-12 18:48 | 30.75314 | -86.99929 | 458 ft | 95 kts | 146° |
| 2026-04-12 18:49 | 30.74788 | -86.99485 | 458 ft | 95 kts | 146° |
| 2026-04-12 18:49 | 30.74250 | -86.99029 | 458 ft | 96 kts | 146° |
| 2026-04-12 18:49 | 30.73613 | -86.98846 | 447 ft | 105 kts | 179° |
| 2026-04-12 18:49 | 30.72943 | -86.99153 | 460 ft | 95 kts | 197° |
| 2026-04-12 18:50 | 30.72322 | -86.99346 | 655 ft | 92 kts | 197° |
| 2026-04-12 18:50 | 30.71683 | -86.99538 | 561 ft | 100 kts | 197° |
| 2026-04-12 18:50 | 30.71060 | -86.99897 | 403 ft | 99 kts | 216° |
| 2026-04-12 18:50 | 30.70630 | -87.00455 | 308 ft | 82 kts | 227° |
| 2026-04-12 18:51 | 30.70292 | -87.00897 | 220 ft | 64 kts | 226° |
| 2026-04-12 18:51 | 30.69999 | -87.01263 | 214 ft | 72 kts | 225° |
| 2026-04-12 18:51 | 30.69557 | -87.01773 | 368 ft | 94 kts | 225° |
| 2026-04-12 18:51 | 30.69038 | -87.02193 | 433 ft | 97 kts | 206° |
| 2026-04-12 18:52 | 30.68361 | -87.02043 | 424 ft | 106 kts | 154° |
| 2026-04-12 18:52 | 30.67971 | -87.01307 | 418 ft | 115 kts | 104° |
| 2026-04-12 18:52 | 30.68214 | -87.00447 | 433 ft | 113 kts | 43° |
| 2026-04-12 18:52 | 30.68752 | -86.99895 | 423 ft | 94 kts | 42° |
| 2026-04-12 18:53 | 30.69245 | -86.99392 | 420 ft | 95 kts | 42° |
| 2026-04-12 18:53 | 30.69742 | -86.98881 | 426 ft | 95 kts | 42° |
| 2026-04-12 18:53 | 30.70239 | -86.98373 | 421 ft | 93 kts | 41° |
| 2026-04-12 18:53 | 30.70789 | -86.98218 | 415 ft | 79 kts | 2° |
| 2026-04-12 18:54 | 30.71204 | -86.98609 | 423 ft | 82 kts | 326° |
| 2026-04-12 18:54 | 30.71251 | -86.99285 | 421 ft | 90 kts | 279° |
| 2026-04-12 18:54 | 30.71021 | -86.99911 | 435 ft | 79 kts | 254° |
| 2026-04-12 18:54 | 30.70673 | -87.00497 | 324 ft | 89 kts | 230° |
| 2026-04-12 18:55 | 30.70303 | -87.00877 | 252 ft | 51 kts | 226° |
| 2026-04-12 18:55 | 30.70159 | -87.01066 | 215 ft | 15 kts | 226° |
| 2026-04-12 18:55 | 30.70130 | -87.01103 | 190 ft | 2 kts | 226° |
| 2026-04-12 18:55 | 30.70104 | -87.01132 | 179 ft | 7 kts | 230° |
| 2026-04-12 18:56 | 30.70084 | -87.01186 | 177 ft | 7 kts | 276° |
| 2026-04-12 18:56 | 30.70097 | -87.01222 | 177 ft | 3 kts | 4° |
| 2026-04-12 18:56 | 30.70124 | -87.01223 | 176 ft | 4 kts | 353° |
| 2026-04-12 18:56 | 30.70153 | -87.01229 | 175 ft | 4 kts | 348° |
| 2026-04-12 18:57 | 30.70177 | -87.01249 | 175 ft | 8 kts | 284° |
| 2026-04-12 18:57 | 30.70157 | -87.01319 | 175 ft | 10 kts | 281° |
| 2026-04-12 18:57 | 30.70176 | -87.01381 | 176 ft | 0 kts | 286° |
| 2026-04-12 18:59 | 30.70176 | -87.01382 | 176 ft | 0 kts | 286° |